Time;durP1;ratioP1;P1;durP2;ratioP2;P2;SDS_P1;SDS_P2;PMS_P1;PMS_P2;Temp;Humidity;BMP_temperature;BMP_pressure;BME280_temperature;BME280_humidity;BME280_pressure;Samples;Min_cycle;Max_cycle;Signal;HPM_P1;HPM_P2
2021/07/28 00:01:00;;;;;;;17.48;8.00;;;;;;;21.81;89.27;96035.22;5017452;28;20244;-67
2021/07/28 00:03:27;;;;;;;14.77;8.05;;;;;;;21.71;89.78;96035.09;5017629;28;20205;-69
2021/07/28 00:05:53;;;;;;;14.50;8.25;;;;;;;21.69;89.88;96042.59;5013606;28;20217;-67
2021/07/28 00:08:21;;;;;;;16.45;8.60;;;;;;;21.79;89.78;96036.53;5018002;28;20205;-66
2021/07/28 00:10:47;;;;;;;21.15;8.50;;;;;;;21.76;90.28;96034.34;5017415;28;20253;-68
2021/07/28 00:13:14;;;;;;;13.68;8.45;;;;;;;21.86;89.94;96035.28;5016466;28;20569;-68
2021/07/28 00:15:42;;;;;;;15.18;8.18;;;;;;;21.94;90.01;96039.38;5016076;28;20225;-67
2021/07/28 00:18:15;;;;;;;12.57;7.78;;;;;;;21.81;90.11;96029.06;5016498;28;20705;-69
2021/07/28 00:23:26;;;;;;;16.33;8.98;;;;;;;21.95;89.79;96038.34;5016681;28;20723;-68
2021/07/28 00:25:53;;;;;;;16.45;10.35;;;;;;;21.87;89.09;96036.91;5015476;28;20267;-70
2021/07/28 00:28:19;;;;;;;18.88;8.02;;;;;;;21.95;89.76;96039.13;5016870;28;20194;-68
2021/07/28 00:30:47;;;;;;;15.38;9.40;;;;;;;22.04;90.24;96042.19;5016658;28;20222;-68
2021/07/28 00:33:13;;;;;;;20.20;9.70;;;;;;;21.98;90.54;96045.88;5016245;28;20201;-67
2021/07/28 00:35:40;;;;;;;14.50;8.95;;;;;;;21.97;90.70;96036.19;5015331;28;20684;-68
2021/07/28 00:38:07;;;;;;;14.95;9.68;;;;;;;22.10;90.25;96042.78;5016315;28;20226;-70
2021/07/28 00:40:34;;;;;;;14.60;9.30;;;;;;;22.14;90.54;96043.09;5016279;28;20238;-70
2021/07/28 00:43:12;;;;;;;15.55;9.32;;;;;;;22.28;89.70;96034.41;5016396;28;20229;-70
2021/07/28 00:45:39;;;;;;;14.25;9.13;;;;;;;22.18;90.47;96041.53;5019106;28;20201;-69
2021/07/28 00:48:08;;;;;;;17.20;9.93;;;;;;;22.32;90.18;96040.91;5019859;28;21075;-72
2021/07/28 00:50:35;;;;;;;14.75;9.40;;;;;;;22.08;91.09;96039.56;5019762;28;20213;-72
2021/07/28 00:53:02;;;;;;;18.75;9.55;;;;;;;22.23;90.77;96036.22;5020477;28;20213;-68
2021/07/28 00:55:30;;;;;;;22.00;10.40;;;;;;;22.35;90.33;96024.28;5019487;28;20320;-67
2021/07/28 00:57:57;;;;;;;15.50;8.88;;;;;;;22.25;90.10;96028.69;5019081;28;20709;-69
2021/07/28 01:00:24;;;;;;;16.38;9.35;;;;;;;22.27;89.47;96023.94;5020019;28;20222;-68
2021/07/28 01:02:50;;;;;;;14.35;8.48;;;;;;;22.21;89.36;96019.53;5020003;28;20206;-68
2021/07/28 01:05:18;;;;;;;14.05;9.00;;;;;;;22.35;89.04;96018.94;5018911;28;20202;-71
2021/07/28 01:07:45;;;;;;;16.92;10.27;;;;;;;22.27;88.48;96024.72;5016462;28;20205;-67
2021/07/28 01:10:12;;;;;;;19.25;8.90;;;;;;;22.20;89.02;96029.47;5020568;28;20780;-68
2021/07/28 01:12:42;;;;;;;14.52;8.88;;;;;;;22.16;88.87;96030.22;5019247;28;20213;-68
2021/07/28 01:15:10;;;;;;;17.20;8.82;;;;;;;22.16;89.13;96041.78;5019559;28;20202;-72
2021/07/28 01:17:37;;;;;;;15.63;8.00;;;;;;;22.15;89.08;96039.38;5019148;28;20206;-67
2021/07/28 01:20:08;;;;;;;13.38;7.88;;;;;;;22.13;89.40;96034.25;5019511;28;20213;-71
2021/07/28 01:22:35;;;;;;;11.60;7.47;;;;;;;22.15;89.18;96028.63;5019302;28;20194;-72
2021/07/28 01:25:04;;;;;;;15.07;7.93;;;;;;;22.04;89.93;96038.41;5019420;28;20221;-70
2021/07/28 01:27:31;;;;;;;16.98;8.25;;;;;;;21.94;90.50;96036.72;5018977;28;20201;-71
2021/07/28 01:29:57;;;;;;;16.75;8.98;;;;;;;22.04;90.17;96034.13;5018999;28;20582;-68
2021/07/28 01:32:24;;;;;;;17.92;9.07;;;;;;;22.09;90.30;96035.00;5019390;28;20201;-67
2021/07/28 01:34:53;;;;;;;19.05;8.77;;;;;;;22.07;89.90;96032.56;5019480;28;20209;-69
2021/07/28 01:37:22;;;;;;;13.95;9.02;;;;;;;21.97;91.27;96025.47;5018486;28;20252;-69
2021/07/28 01:39:48;;;;;;;18.88;9.05;;;;;;;21.95;90.47;96024.91;5019255;28;20224;-66
2021/07/28 01:42:16;;;;;;;19.55;10.20;;;;;;;22.08;90.61;96038.75;5019111;28;20209;-70
2021/07/28 01:44:43;;;;;;;17.13;10.13;;;;;;;21.79;92.14;96026.63;5018656;28;20729;-68
2021/07/28 01:47:09;;;;;;;18.95;9.40;;;;;;;21.78;92.07;96030.38;5018124;28;20206;-67
2021/07/28 01:49:36;;;;;;;17.73;9.23;;;;;;;21.85;91.57;96022.91;5019172;28;20201;-67
2021/07/28 01:52:02;;;;;;;19.15;9.82;;;;;;;21.67;93.17;96025.13;5019062;28;20225;-67
2021/07/28 01:54:29;;;;;;;15.27;9.77;;;;;;;21.84;92.61;96017.81;5018022;28;20218;-67
2021/07/28 01:56:55;;;;;;;16.63;10.65;;;;;;;21.87;92.19;96012.75;5017940;28;20206;-67
2021/07/28 01:59:25;;;;;;;19.75;10.55;;;;;;;21.96;92.26;96016.63;5018856;28;20225;-67
2021/07/28 02:01:52;;;;;;;17.05;10.50;;;;;;;22.04;91.47;96026.09;5018437;28;20229;-67
2021/07/28 02:04:18;;;;;;;17.67;9.88;;;;;;;21.99;91.50;96023.34;5018528;28;20206;-67
2021/07/28 02:06:44;;;;;;;15.00;10.10;;;;;;;22.00;91.70;96030.34;5014894;28;20209;-67
2021/07/28 02:09:11;;;;;;;16.88;10.45;;;;;;;21.96;91.57;96026.50;5018662;28;20206;-66
2021/07/28 02:11:37;;;;;;;21.48;11.27;;;;;;;21.74;92.87;96033.78;5017960;28;20230;-67
2021/07/28 02:14:04;;;;;;;22.70;11.07;;;;;;;21.86;92.50;96034.47;5019062;28;20209;-67
2021/07/28 02:16:32;;;;;;;19.20;10.25;;;;;;;21.97;91.65;96026.28;5017178;28;20801;-67
2021/07/28 02:18:58;;;;;;;19.55;10.68;;;;;;;21.82;92.36;96022.63;5017842;28;20221;-67
2021/07/28 02:21:25;;;;;;;19.42;11.15;;;;;;;21.77;93.11;96030.63;5018386;28;20221;-67
2021/07/28 02:23:51;;;;;;;17.05;9.80;;;;;;;21.68;92.31;96029.44;5019144;28;20198;-67
2021/07/28 02:26:18;;;;;;;22.25;10.18;;;;;;;21.71;92.06;96029.72;5016831;28;20217;-67
2021/07/28 02:28:44;;;;;;;19.38;9.82;;;;;;;21.76;91.98;96020.94;5017901;28;20205;-67
2021/07/28 02:31:11;;;;;;;15.98;9.70;;;;;;;21.74;92.68;96015.00;5018267;28;20272;-67
2021/07/28 02:33:38;;;;;;;19.55;9.85;;;;;;;21.95;92.48;96011.50;5018158;28;20229;-67
2021/07/28 02:36:05;;;;;;;17.67;9.35;;;;;;;21.45;93.36;96016.25;5017065;28;20209;-67
2021/07/28 02:38:31;;;;;;;15.70;9.23;;;;;;;21.23;94.42;96031.50;5018161;28;20228;-66
2021/07/28 02:40:58;;;;;;;20.92;9.88;;;;;;;21.13;95.49;96028.69;5017652;28;20230;-67
2021/07/28 02:43:24;;;;;;;21.40;10.35;;;;;;;21.09;95.98;96038.28;5017736;28;20693;-67
2021/07/28 02:45:51;;;;;;;19.95;9.23;;;;;;;21.10;95.81;96039.06;5017132;28;20216;-66
2021/07/28 02:48:17;;;;;;;20.10;9.20;;;;;;;20.82;96.97;96049.09;5017599;28;20237;-69
2021/07/28 02:50:45;;;;;;;27.45;10.23;;;;;;;21.11;95.85;96051.44;5017807;28;20226;-70
2021/07/28 02:53:12;;;;;;;22.15;11.02;;;;;;;21.03;95.66;96058.00;5017440;28;20209;-69
2021/07/28 02:55:38;;;;;;;20.13;10.23;;;;;;;20.97;95.23;96050.94;5016874;28;20203;-70
2021/07/28 02:58:05;;;;;;;18.05;10.80;;;;;;;21.10;94.57;96041.75;5014230;28;20205;-69
2021/07/28 03:00:31;;;;;;;22.45;10.75;;;;;;;21.22;93.80;96037.91;5017499;28;20222;-69
2021/07/28 03:02:57;;;;;;;19.08;10.05;;;;;;;21.35;93.19;96036.75;5016238;28;20209;-69
2021/07/28 03:05:24;;;;;;;25.17;10.88;;;;;;;21.33;92.78;96047.69;5017185;28;20205;-69
2021/07/28 03:07:52;;;;;;;18.60;10.40;;;;;;;21.62;91.61;96041.16;5014487;28;20202;-69
2021/07/28 03:10:18;;;;;;;18.33;10.63;;;;;;;21.70;91.33;96038.03;5017661;28;20218;-69
2021/07/28 03:12:45;;;;;;;23.20;10.82;;;;;;;21.75;91.84;96038.09;5017510;28;21098;-69
2021/07/28 03:15:11;;;;;;;18.55;10.77;;;;;;;21.87;91.37;96036.06;5016981;28;20585;-69
2021/07/28 03:17:38;;;;;;;20.60;10.38;;;;;;;21.93;90.90;96035.09;5017018;28;20210;-69
2021/07/28 03:20:05;;;;;;;21.15;11.73;;;;;;;21.99;91.05;96031.41;5016708;28;20225;-69
2021/07/28 03:22:32;;;;;;;21.88;11.32;;;;;;;21.91;90.91;96037.22;5016904;28;20209;-69
2021/07/28 03:25:00;;;;;;;22.23;11.55;;;;;;;22.06;90.64;96027.47;5020605;28;20209;-69
2021/07/28 03:27:26;;;;;;;22.92;10.98;;;;;;;21.94;91.34;96031.34;5024524;28;20202;-69
2021/07/28 03:29:52;;;;;;;22.23;11.23;;;;;;;21.93;90.44;96040.44;5025442;28;20209;-66
2021/07/28 03:32:19;;;;;;;17.98;11.13;;;;;;;21.95;90.04;96039.13;5025804;28;20204;-67
2021/07/28 03:34:45;;;;;;;18.42;10.68;;;;;;;21.88;90.33;96037.69;5025636;28;20209;-68
2021/07/28 03:37:12;;;;;;;24.70;11.13;;;;;;;22.03;90.74;96032.50;5025858;28;20210;-66
2021/07/28 03:39:38;;;;;;;19.50;11.20;;;;;;;22.00;90.59;96035.72;5025413;28;20217;-67
2021/07/28 03:42:07;;;;;;;20.58;10.90;;;;;;;22.18;90.27;96039.66;5025471;28;20965;-68
2021/07/28 03:44:34;;;;;;;18.95;10.52;;;;;;;22.04;90.52;96038.41;5025529;28;20197;-68
2021/07/28 03:47:00;;;;;;;21.73;10.93;;;;;;;22.04;90.26;96036.81;5024774;28;20212;-67
2021/07/28 03:49:27;;;;;;;18.52;10.95;;;;;;;22.01;90.52;96035.47;5025557;28;20194;-68
2021/07/28 03:51:53;;;;;;;17.90;10.75;;;;;;;21.97;90.70;96045.06;5025534;28;20226;-67
2021/07/28 03:54:19;;;;;;;21.70;10.65;;;;;;;21.80;91.28;96048.88;5026069;28;20221;-68
2021/07/28 03:56:46;;;;;;;18.13;10.30;;;;;;;21.79;90.55;96048.09;5025152;28;20198;-67
2021/07/28 03:59:14;;;;;;;24.40;11.23;;;;;;;22.02;90.05;96030.88;5024743;28;20245;-68
2021/07/28 04:01:40;;;;;;;17.42;10.07;;;;;;;22.01;90.45;96035.47;5025345;28;20221;-66
2021/07/28 04:04:06;;;;;;;19.20;10.38;;;;;;;22.00;90.34;96036.50;5026314;28;20658;-67
2021/07/28 04:06:33;;;;;;;24.27;10.63;;;;;;;22.00;90.18;96047.25;5021993;28;20213;-67
2021/07/28 04:08:59;;;;;;;20.13;10.68;;;;;;;22.00;90.66;96041.06;5025757;28;20197;-67
2021/07/28 04:11:26;;;;;;;18.45;11.20;;;;;;;22.03;90.78;96040.56;5025978;28;20221;-70
2021/07/28 04:13:52;;;;;;;22.92;10.77;;;;;;;21.99;90.61;96042.13;5025643;28;20210;-67
2021/07/28 04:16:20;;;;;;;16.88;9.88;;;;;;;22.13;90.34;96034.25;5025916;28;20209;-67
2021/07/28 04:18:46;;;;;;;18.13;10.63;;;;;;;21.94;90.06;96040.19;5029803;28;20221;-66
2021/07/28 04:21:13;;;;;;;20.02;10.55;;;;;;;22.04;89.70;96042.19;5031633;28;20717;-67
2021/07/28 04:23:39;;;;;;;19.85;10.20;;;;;;;22.02;89.87;96034.41;5031055;28;20209;-68
2021/07/28 04:26:06;;;;;;;24.17;10.05;;;;;;;22.01;89.96;96030.09;5029779;28;20202;-69
2021/07/28 04:28:32;;;;;;;17.48;10.70;;;;;;;21.95;90.30;96039.13;5031237;28;20206;-69
2021/07/28 04:30:59;;;;;;;16.48;9.75;;;;;;;21.82;89.64;96049.47;5031621;28;20234;-65
2021/07/28 04:33:26;;;;;;;23.05;10.52;;;;;;;22.13;88.79;96044.16;5031152;28;20441;-70
2021/07/28 04:35:53;;;;;;;20.65;10.35;;;;;;;22.00;89.49;96035.72;5030588;28;20252;-67
2021/07/28 04:38:19;;;;;;;19.30;10.70;;;;;;;22.04;90.42;96033.06;5030639;28;20205;-68
2021/07/28 04:40:46;;;;;;;19.50;10.38;;;;;;;22.16;90.02;96028.38;5030602;28;20233;-66
2021/07/28 04:43:12;;;;;;;18.60;10.32;;;;;;;22.04;90.19;96022.31;5031544;28;20217;-66
2021/07/28 04:45:40;;;;;;;17.92;10.10;;;;;;;22.05;90.56;96021.25;5030150;28;20202;-68
2021/07/28 04:48:06;;;;;;;22.63;10.30;;;;;;;22.18;90.08;96007.44;5030896;28;20248;-68
2021/07/28 04:50:35;;;;;;;24.85;11.07;;;;;;;22.39;89.35;95997.72;5031490;28;20224;-66
2021/07/28 04:53:01;;;;;;;17.00;9.38;;;;;;;22.16;90.50;96014.94;5032175;28;20206;-69
2021/07/28 04:55:28;;;;;;;21.70;10.52;;;;;;;22.08;90.74;96018.09;5030016;28;20209;-66
2021/07/28 04:57:54;;;;;;;21.10;11.00;;;;;;;22.07;90.00;96016.47;5030811;28;20202;-67
2021/07/28 05:00:21;;;;;;;21.63;12.43;;;;;;;22.21;90.22;96025.72;5031539;28;20248;-67
2021/07/28 05:02:48;;;;;;;23.02;11.18;;;;;;;22.19;88.89;96027.84;5031496;28;20672;-67
2021/07/28 05:05:14;;;;;;;17.63;11.27;;;;;;;22.25;90.21;96021.47;5029622;28;20210;-67
2021/07/28 05:07:42;;;;;;;28.00;10.98;;;;;;;22.43;90.41;96020.31;5028598;28;20209;-66
2021/07/28 05:10:09;;;;;;;22.75;11.10;;;;;;;22.37;88.00;96024.84;5030276;28;20232;-68
2021/07/28 05:12:36;;;;;;;25.10;11.25;;;;;;;22.33;87.25;96026.41;5031708;28;20206;-69
2021/07/28 05:15:03;;;;;;;17.50;10.88;;;;;;;22.43;89.20;96015.78;5030684;28;20205;-67
2021/07/28 05:17:29;;;;;;;19.13;10.48;;;;;;;22.41;89.28;96017.09;5029168;28;21194;-69
2021/07/28 05:19:56;;;;;;;20.42;11.65;;;;;;;22.60;88.68;96023.69;5029529;28;20226;-68
2021/07/28 05:22:22;;;;;;;23.08;12.20;;;;;;;22.60;87.40;96015.66;5030776;28;20209;-68
2021/07/28 05:24:52;;;;;;;19.40;10.63;;;;;;;22.83;88.08;96019.56;5030457;28;20956;-66
2021/07/28 05:27:18;;;;;;;19.50;10.25;;;;;;;22.74;88.20;96018.44;5029195;28;20206;-69
2021/07/28 05:29:45;;;;;;;22.33;10.80;;;;;;;22.76;88.09;96020.88;5029822;28;20612;-67
2021/07/28 05:32:11;;;;;;;16.35;10.23;;;;;;;22.79;87.46;96033.78;5030405;28;20648;-67
2021/07/28 05:34:38;;;;;;;19.80;11.40;;;;;;;22.83;88.10;96024.16;5027360;28;20238;-68
2021/07/28 05:37:05;;;;;;;21.02;10.75;;;;;;;22.43;86.72;96014.94;5025978;28;20209;-68
2021/07/28 05:39:31;;;;;;;19.23;10.30;;;;;;;22.40;85.83;96016.28;5027716;28;20563;-67
2021/07/28 05:41:59;;;;;;;19.52;10.15;;;;;;;22.80;84.69;96011.25;5026834;28;20226;-68
2021/07/28 05:44:28;;;;;;;19.83;10.45;;;;;;;22.69;85.23;96020.28;5028199;28;20654;-68
2021/07/28 05:46:55;;;;;;;31.15;11.05;;;;;;;22.70;84.25;96027.28;5028111;28;20289;-68
2021/07/28 05:49:22;;;;;;;18.23;9.20;;;;;;;22.62;84.04;96038.50;5028951;28;20206;-69
2021/07/28 05:51:49;;;;;;;15.77;9.30;;;;;;;22.24;86.26;96033.28;5030420;28;20226;-67
2021/07/28 05:54:15;;;;;;;14.35;9.10;;;;;;;22.05;86.71;96045.41;5029831;28;20209;-68
2021/07/28 05:56:41;;;;;;;18.90;10.25;;;;;;;22.04;88.20;96043.00;5028861;28;20193;-70
2021/07/28 05:59:09;;;;;;;19.70;10.35;;;;;;;22.38;87.01;96050.63;5030353;28;20214;-67
2021/07/28 06:01:36;;;;;;;17.27;10.18;;;;;;;22.06;87.44;96044.34;5029912;28;20229;-68
2021/07/28 06:04:02;;;;;;;19.27;8.98;;;;;;;22.34;86.29;96054.88;5029464;28;20206;-69
2021/07/28 06:06:29;;;;;;;17.73;10.02;;;;;;;22.66;87.41;96055.72;5026355;28;20650;-69
2021/07/28 06:08:56;;;;;;;18.02;9.77;;;;;;;22.00;88.03;96047.25;5029417;28;20205;-70
2021/07/28 06:11:23;;;;;;;17.40;9.63;;;;;;;22.49;86.40;96041.63;5029748;28;20218;-67
2021/07/28 06:13:49;;;;;;;20.17;9.95;;;;;;;22.70;86.77;96041.50;5029935;28;20210;-67
2021/07/28 06:16:17;;;;;;;19.23;10.02;;;;;;;23.13;87.28;96030.59;5027951;28;20344;-70
2021/07/28 06:18:43;;;;;;;16.88;10.27;;;;;;;23.11;85.91;96034.59;5028554;28;20202;-67
2021/07/28 06:21:10;;;;;;;19.80;10.13;;;;;;;22.92;84.01;96036.03;5028629;28;21067;-70
2021/07/28 06:23:36;;;;;;;17.50;9.35;;;;;;;22.74;84.38;96042.63;5030611;28;20209;-67
2021/07/28 06:26:03;;;;;;;17.75;9.45;;;;;;;22.78;85.15;96051.81;5029060;28;20201;-67
2021/07/28 06:28:30;;;;;;;19.27;9.73;;;;;;;22.82;84.89;96049.41;5029633;28;20212;-66
2021/07/28 06:30:56;;;;;;;18.83;10.00;;;;;;;22.84;83.97;96042.69;5029157;28;20593;-69
2021/07/28 06:33:24;;;;;;;22.95;9.85;;;;;;;23.03;84.02;96035.88;5029719;28;20229;-67
2021/07/28 06:35:52;;;;;;;18.00;9.88;;;;;;;23.13;84.48;96037.81;5028472;28;20206;-70
2021/07/28 06:38:20;;;;;;;22.42;10.07;;;;;;;22.87;84.29;96047.56;5028570;28;20217;-70
2021/07/28 06:40:47;;;;;;;15.13;9.32;;;;;;;22.90;84.23;96047.06;5030134;28;20226;-67
2021/07/28 06:43:14;;;;;;;18.48;9.80;;;;;;;23.10;83.25;96049.09;5030051;28;20205;-68
2021/07/28 06:45:41;;;;;;;21.27;10.05;;;;;;;23.10;84.30;96039.16;5029137;28;20202;-70
2021/07/28 06:48:08;;;;;;;18.35;9.93;;;;;;;23.08;84.49;96043.19;5029079;28;20474;-68
2021/07/28 06:50:36;;;;;;;18.83;10.30;;;;;;;23.16;84.05;96045.38;5028271;28;21037;-67
2021/07/28 06:53:03;;;;;;;18.08;10.90;;;;;;;23.14;83.91;96045.66;5027959;28;20206;-70
2021/07/28 06:55:29;;;;;;;18.58;10.10;;;;;;;22.92;83.60;96039.53;5027560;28;20201;-67
2021/07/28 06:57:56;;;;;;;20.85;10.10;;;;;;;23.04;83.67;96044.75;5029027;28;20202;-67
2021/07/28 07:00:23;;;;;;;17.65;10.25;;;;;;;23.01;84.15;96047.97;5028855;28;20221;-66
2021/07/28 07:02:49;;;;;;;17.33;10.50;;;;;;;23.13;84.22;96049.41;5029724;28;20206;-70
2021/07/28 07:05:16;;;;;;;21.08;11.23;;;;;;;23.14;81.27;96048.34;5020400;28;20773;-68
2021/07/28 07:07:47;;;;;;;17.92;10.73;;;;;;;23.01;82.66;96040.69;5016690;28;20297;-68
2021/07/28 07:10:14;;;;;;;20.48;10.50;;;;;;;23.06;83.63;96039.94;5018709;28;20228;-65
2021/07/28 07:12:40;;;;;;;17.90;10.27;;;;;;;23.25;82.27;96036.56;5018614;28;20209;-66
2021/07/28 07:15:09;;;;;;;17.13;10.38;;;;;;;23.38;84.52;96041.47;5018160;28;20210;-70
2021/07/28 07:17:35;;;;;;;16.42;10.38;;;;;;;22.98;82.76;96040.41;5018250;28;20216;-68
2021/07/28 07:20:02;;;;;;;17.85;10.23;;;;;;;23.27;81.88;96044.34;5018403;28;20254;-67
2021/07/28 07:22:29;;;;;;;17.20;10.40;;;;;;;23.24;82.91;96056.44;5018178;28;20250;-68
2021/07/28 07:24:56;;;;;;;19.65;10.55;;;;;;;23.32;81.46;96072.13;5018590;28;20213;-66
2021/07/28 07:27:23;;;;;;;25.80;11.38;;;;;;;23.06;82.53;96077.56;5019284;28;20210;-69
2021/07/28 07:29:50;;;;;;;22.20;11.00;;;;;;;22.68;83.43;96075.06;5018137;28;20200;-68
2021/07/28 07:32:20;;;;;;;19.13;11.23;;;;;;;22.84;84.32;96076.84;5017092;28;20260;-69
2021/07/28 07:34:47;;;;;;;21.13;10.82;;;;;;;22.16;88.40;96082.06;5017338;28;20294;-69
2021/07/28 07:37:13;;;;;;;18.23;10.93;;;;;;;22.59;86.54;96092.72;5017632;28;20198;-69
2021/07/28 07:39:40;;;;;;;19.98;9.77;;;;;;;22.81;85.25;96090.75;5018206;28;20214;-68
2021/07/28 07:42:07;;;;;;;23.60;10.65;;;;;;;23.07;87.00;96103.38;5017309;28;20234;-69
2021/07/28 07:44:34;;;;;;;18.90;10.95;;;;;;;22.23;88.38;96096.06;5019104;28;20202;-69
2021/07/28 07:47:00;;;;;;;16.15;8.85;;;;;;;22.80;86.20;96091.84;5017436;28;20911;-69
2021/07/28 07:49:27;;;;;;;21.27;10.13;;;;;;;22.67;88.08;96103.81;5017936;28;20206;-69
2021/07/28 07:51:53;;;;;;;17.75;9.07;;;;;;;23.19;85.67;96106.69;5022623;28;20222;-68
2021/07/28 07:54:20;;;;;;;19.15;11.02;;;;;;;23.03;86.93;96103.09;5018333;28;20209;-66
2021/07/28 07:56:46;;;;;;;21.67;11.82;;;;;;;23.13;87.82;96107.72;5018935;28;21233;-69
2021/07/28 07:59:14;;;;;;;20.50;10.27;;;;;;;23.07;86.57;96106.06;5022044;28;20198;-67
2021/07/28 08:01:40;;;;;;;18.30;10.40;;;;;;;23.05;87.97;96113.56;5022495;28;20225;-66
2021/07/28 08:04:07;;;;;;;20.90;12.27;;;;;;;23.19;88.88;96112.88;5022842;28;20440;-67
2021/07/28 08:06:33;;;;;;;22.60;12.38;;;;;;;23.19;89.93;96117.44;5019622;28;20197;-69
2021/07/28 08:09:00;;;;;;;20.15;12.07;;;;;;;22.89;89.10;96119.88;5023019;28;20236;-68
2021/07/28 08:11:26;;;;;;;28.92;12.10;;;;;;;22.20;93.08;96112.69;5020628;28;20249;-67
2021/07/28 08:13:53;;;;;;;20.67;12.18;;;;;;;22.73;91.30;96118.09;5019696;28;20701;-70
2021/07/28 08:16:22;;;;;;;21.52;11.68;;;;;;;22.29;93.25;96124.63;5018088;28;20225;-68
2021/07/28 08:18:50;;;;;;;22.02;12.05;;;;;;;22.53;92.67;96117.94;5019818;28;20212;-69
2021/07/28 08:21:17;;;;;;;27.20;12.95;;;;;;;22.80;92.28;96124.88;5022442;28;20709;-68
2021/07/28 08:23:45;;;;;;;20.15;12.38;;;;;;;23.16;91.02;96124.16;5021369;28;20288;-69
2021/07/28 08:26:13;;;;;;;24.33;12.10;;;;;;;22.66;91.94;96127.44;5020935;28;20574;-69
2021/07/28 08:28:40;;;;;;;22.73;12.73;;;;;;;22.45;92.48;96130.97;5021130;28;20378;-69
2021/07/28 08:31:06;;;;;;;19.25;11.55;;;;;;;22.55;91.56;96136.47;5020196;28;20226;-67
2021/07/28 08:33:34;;;;;;;24.92;11.57;;;;;;;22.45;92.47;96136.34;5017162;28;20229;-69
2021/07/28 08:36:02;;;;;;;22.40;12.00;;;;;;;22.62;92.96;96132.53;5016401;28;20217;-67
2021/07/28 08:38:29;;;;;;;19.55;11.55;;;;;;;23.05;91.76;96129.69;5017411;28;20224;-68
2021/07/28 08:41:00;;;;;;;22.63;12.90;;;;;;;23.11;91.89;96131.38;5018625;28;20233;-69
2021/07/28 08:43:28;;;;;;;20.63;12.80;;;;;;;22.99;92.91;96138.81;5019119;28;20209;-67
2021/07/28 08:45:57;;;;;;;23.90;13.30;;;;;;;23.01;91.81;96129.41;5020623;28;20212;-70
2021/07/28 08:48:24;;;;;;;22.88;13.82;;;;;;;23.21;91.36;96131.47;5020868;28;20198;-67
2021/07/28 08:50:53;;;;;;;25.05;14.02;;;;;;;23.20;92.88;96135.22;5019847;28;20253;-68
2021/07/28 08:53:20;;;;;;;27.02;15.18;;;;;;;22.37;93.17;96140.28;5019446;28;20577;-69
2021/07/28 08:55:47;;;;;;;27.67;15.60;;;;;;;22.64;93.88;96151.06;5018222;28;20692;-66
2021/07/28 08:58:15;;;;;;;28.67;15.45;;;;;;;22.47;93.89;96151.16;5021729;28;20202;-68
2021/07/28 09:00:43;;;;;;;27.17;15.05;;;;;;;22.43;93.08;96144.66;5019901;28;20320;-68
2021/07/28 09:03:09;;;;;;;21.23;11.50;;;;;;;21.96;93.63;96142.72;5019682;28;20291;-65
2021/07/28 09:05:40;;;;;;;22.30;12.02;;;;;;;22.30;90.78;96149.59;5019104;28;20202;-66
2021/07/28 09:08:21;;;;;;;17.98;10.55;;;;;;;22.62;88.65;96153.19;5021621;28;20233;-69
2021/07/28 09:10:50;;;;;;;12.43;6.75;;;;;;;21.96;83.39;96141.91;5019679;28;20296;-67
2021/07/28 09:13:26;;;;;;;10.20;5.75;;;;;;;22.21;79.25;96143.84;5020045;28;20233;-66
2021/07/28 09:15:55;;;;;;;8.68;4.93;;;;;;;22.35;78.04;96139.75;5018610;28;20205;-68
2021/07/28 09:18:30;;;;;;;10.20;4.60;;;;;;;22.44;78.03;96146.28;5020197;28;20202;-68
2021/07/28 09:20:56;;;;;;;7.88;4.88;;;;;;;21.68;79.71;96144.78;5019486;28;20354;-67
2021/07/28 09:23:33;;;;;;;6.80;4.57;;;;;;;21.93;80.09;96153.16;5020095;28;20201;-69
2021/07/28 09:26:00;;;;;;;7.88;5.05;;;;;;;21.94;80.41;96155.56;5018553;28;20209;-68
2021/07/28 09:28:27;;;;;;;6.95;4.25;;;;;;;21.95;78.14;96156.41;5019457;28;20244;-69
2021/07/28 09:30:53;;;;;;;9.73;5.05;;;;;;;21.68;80.59;96158.97;5019751;28;20233;-68
2021/07/28 09:33:20;;;;;;;9.25;4.07;;;;;;;21.63;77.71;96163.47;5019437;28;20209;-67
2021/07/28 09:36:16;;;;;;;8.15;3.72;;;;;;;21.76;77.68;96158.56;5019035;28;20217;-66
2021/07/28 09:38:45;;;;;;;6.95;3.80;;;;;;;21.71;78.08;96166.53;5018750;28;20560;-68
2021/07/28 09:41:21;;;;;;;5.72;4.15;;;;;;;21.66;78.15;96173.69;5020387;28;20229;-69
2021/07/28 09:43:50;;;;;;;6.68;4.40;;;;;;;21.50;78.29;96174.53;5020545;28;20233;-69
2021/07/28 09:46:30;;;;;;;6.65;4.00;;;;;;;21.56;81.22;96168.19;5019502;28;20202;-67
2021/07/28 09:48:58;;;;;;;8.95;4.55;;;;;;;21.71;80.94;96165.72;5022239;28;20224;-69
2021/07/28 09:51:28;;;;;;;9.27;5.32;;;;;;;21.61;82.38;96170.94;5020845;28;20238;-66
2021/07/28 09:53:58;;;;;;;8.95;5.07;;;;;;;21.41;83.09;96167.13;5020676;28;20690;-68
2021/07/28 09:56:29;;;;;;;9.27;5.40;;;;;;;21.38;83.70;96165.75;5019316;28;20194;-69
2021/07/28 09:58:57;;;;;;;8.20;4.80;;;;;;;21.30;83.44;96163.47;5019701;28;20229;-67
2021/07/28 10:01:25;;;;;;;8.35;5.20;;;;;;;21.20;83.03;96167.88;5020047;28;20232;-69
2021/07/28 10:03:53;;;;;;;16.33;5.68;;;;;;;21.40;83.86;96169.00;5020215;28;20252;-66
2021/07/28 10:06:22;;;;;;;9.68;4.57;;;;;;;21.28;81.73;96165.56;5017296;28;20209;-66
2021/07/28 10:08:52;;;;;;;8.38;4.68;;;;;;;21.32;82.77;96168.59;5020873;28;20571;-66
2021/07/28 10:11:22;;;;;;;7.07;4.80;;;;;;;21.23;83.59;96173.56;5020516;28;20231;-69
2021/07/28 10:13:50;;;;;;;8.13;4.72;;;;;;;21.25;83.38;96176.00;5021728;28;20205;-68
2021/07/28 10:16:17;;;;;;;10.07;4.70;;;;;;;21.35;83.10;96171.59;5018916;28;20223;-66
2021/07/28 10:18:46;;;;;;;10.30;4.95;;;;;;;21.53;83.37;96174.84;5021524;28;20209;-69
2021/07/28 10:21:12;;;;;;;6.72;5.00;;;;;;;21.53;83.53;96174.84;5021197;28;20225;-67
2021/07/28 10:23:39;;;;;;;10.05;5.43;;;;;;;21.35;84.56;96181.53;5021346;28;20205;-69
2021/07/28 10:26:06;;;;;;;7.38;4.85;;;;;;;21.26;84.10;96181.09;5020246;28;20213;-70
2021/07/28 10:28:34;;;;;;;10.90;5.50;;;;;;;21.39;85.38;96180.78;5020539;28;20206;-66
2021/07/28 10:31:19;;;;;;;10.88;6.25;;;;;;;21.54;86.99;96184.53;5021631;28;20780;-67
2021/07/28 10:33:50;;;;;;;15.55;6.35;;;;;;;21.46;87.47;96186.78;5022686;28;21293;-66
2021/07/28 10:36:18;;;;;;;15.65;6.32;;;;;;;21.50;88.76;96185.25;5021654;28;20202;-69
2021/07/28 10:38:52;;;;;;;12.00;6.10;;;;;;;21.35;87.70;96184.22;5021557;28;20202;-68
2021/07/28 10:41:48;;;;;;;11.57;6.82;;;;;;;21.58;87.23;96184.84;5019873;28;20232;-66
2021/07/28 10:44:17;;;;;;;9.68;5.93;;;;;;;21.51;89.01;96187.72;5020049;28;20291;-69
2021/07/28 10:47:16;;;;;;;10.80;6.45;;;;;;;21.70;87.77;96177.50;5019055;28;20232;-67
2021/07/28 10:49:47;;;;;;;12.43;6.20;;;;;;;21.73;88.36;96175.16;5019998;28;20256;-68
2021/07/28 10:52:38;;;;;;;10.00;5.78;;;;;;;22.14;88.71;96172.75;5020947;28;20272;-69
2021/07/28 10:55:15;;;;;;;11.65;6.88;;;;;;;21.99;87.38;96173.63;5019342;28;20332;-68
2021/07/28 10:58:21;;;;;;;14.45;6.93;;;;;;;22.00;87.35;96169.88;5020690;28;20206;-69
2021/07/28 11:00:58;;;;;;;10.43;7.05;;;;;;;22.28;88.05;96167.84;5021183;28;20598;-69
2021/07/28 11:03:38;;;;;;;13.18;7.15;;;;;;;21.89;88.83;96166.25;5022235;28;20201;-68
2021/07/28 11:06:19;;;;;;;13.27;6.78;;;;;;;22.28;87.61;96165.97;5017473;28;20962;-66
2021/07/28 11:08:46;;;;;;;10.95;6.90;;;;;;;22.22;88.19;96160.75;5023280;28;20612;-68
2021/07/28 11:11:20;;;;;;;12.55;7.30;;;;;;;22.31;86.61;96152.06;5017513;28;20796;-66
2021/07/28 11:13:47;;;;;;;11.52;6.50;;;;;;;22.26;86.87;96156.53;5020078;28;20239;-69
2021/07/28 11:16:15;;;;;;;11.27;6.15;;;;;;;22.19;87.48;96167.44;5019425;28;20215;-66
2021/07/28 11:18:43;;;;;;;11.02;6.90;;;;;;;22.28;88.12;96165.16;5018912;28;20681;-66
2021/07/28 11:21:12;;;;;;;10.27;6.70;;;;;;;22.30;88.21;96166.53;5019783;28;20356;-66
2021/07/28 11:23:45;;;;;;;11.75;6.75;;;;;;;21.91;88.33;96166.81;5021692;28;20206;-69
2021/07/28 11:26:14;;;;;;;10.45;6.47;;;;;;;21.40;91.37;96181.56;5018966;28;20212;-66
2021/07/28 11:28:41;;;;;;;13.00;7.00;;;;;;;21.64;91.55;96171.28;5018031;28;20213;-66